sensor_id;sensor_type;location;lat;lon;timestamp;P1;durP1;ratioP1;P2;durP2;ratioP2
69979;SDS011;57318;56.232;43.944;2023-05-15T00:00:12;3.05;;;1.30;;
69979;SDS011;57318;56.232;43.944;2023-05-15T00:02:39;2.50;;;1.42;;
69979;SDS011;57318;56.232;43.944;2023-05-15T00:05:05;3.15;;;1.40;;
69979;SDS011;57318;56.232;43.944;2023-05-15T00:07:33;2.08;;;1.60;;
69979;SDS011;57318;56.232;43.944;2023-05-15T00:10:00;1.98;;;1.40;;
69979;SDS011;57318;56.232;43.944;2023-05-15T00:12:26;4.03;;;1.60;;
69979;SDS011;57318;56.232;43.944;2023-05-15T00:14:52;1.60;;;1.40;;
69979;SDS011;57318;56.232;43.944;2023-05-15T00:17:17;3.50;;;1.43;;
69979;SDS011;57318;56.232;43.944;2023-05-15T00:19:44;5.90;;;1.63;;
69979;SDS011;57318;56.232;43.944;2023-05-15T00:22:10;3.45;;;1.48;;
69979;SDS011;57318;56.232;43.944;2023-05-15T00:24:35;2.60;;;1.40;;
69979;SDS011;57318;56.232;43.944;2023-05-15T00:27:01;1.97;;;1.63;;
69979;SDS011;57318;56.232;43.944;2023-05-15T00:29:27;1.67;;;1.40;;
69979;SDS011;57318;56.232;43.944;2023-05-15T00:31:53;2.37;;;1.30;;
69979;SDS011;57318;56.232;43.944;2023-05-15T00:34:18;1.50;;;1.40;;
69979;SDS011;57318;56.232;43.944;2023-05-15T00:39:11;2.15;;;1.35;;
69979;SDS011;57318;56.232;43.944;2023-05-15T00:41:37;1.87;;;1.70;;
69979;SDS011;57318;56.232;43.944;2023-05-15T00:44:04;3.75;;;1.20;;
69979;SDS011;57318;56.232;43.944;2023-05-15T00:46:31;1.38;;;1.20;;
69979;SDS011;57318;56.232;43.944;2023-05-15T00:48:59;2.15;;;1.40;;
69979;SDS011;57318;56.232;43.944;2023-05-15T00:51:27;1.55;;;1.15;;
69979;SDS011;57318;56.232;43.944;2023-05-15T00:53:53;1.30;;;1.20;;
69979;SDS011;57318;56.232;43.944;2023-05-15T00:56:20;2.90;;;1.10;;
69979;SDS011;57318;56.232;43.944;2023-05-15T00:58:48;3.42;;;1.45;;
69979;SDS011;57318;56.232;43.944;2023-05-15T01:01:17;1.30;;;1.20;;
69979;SDS011;57318;56.232;43.944;2023-05-15T01:03:43;1.40;;;1.30;;
69979;SDS011;57318;56.232;43.944;2023-05-15T01:06:10;2.17;;;1.48;;
69979;SDS011;57318;56.232;43.944;2023-05-15T01:11:11;1.73;;;1.25;;
69979;SDS011;57318;56.232;43.944;2023-05-15T01:13:37;3.45;;;1.60;;
69979;SDS011;57318;56.232;43.944;2023-05-15T01:16:04;2.40;;;1.35;;
69979;SDS011;57318;56.232;43.944;2023-05-15T01:26:23;1.88;;;1.60;;
69979;SDS011;57318;56.232;43.944;2023-05-15T01:29:07;3.33;;;1.63;;
69979;SDS011;57318;56.232;43.944;2023-05-15T01:31:42;7.47;;;1.60;;
69979;SDS011;57318;56.232;43.944;2023-05-15T01:34:14;2.47;;;1.60;;
69979;SDS011;57318;56.232;43.944;2023-05-15T01:36:52;1.40;;;1.30;;
69979;SDS011;57318;56.232;43.944;2023-05-15T01:39:24;1.38;;;1.10;;
69979;SDS011;57318;56.232;43.944;2023-05-15T01:41:59;1.25;;;1.15;;
69979;SDS011;57318;56.232;43.944;2023-05-15T01:44:31;1.65;;;1.10;;
69979;SDS011;57318;56.232;43.944;2023-05-15T01:47:01;1.20;;;1.10;;
69979;SDS011;57318;56.232;43.944;2023-05-15T01:49:33;2.25;;;1.17;;
69979;SDS011;57318;56.232;43.944;2023-05-15T01:52:12;1.65;;;1.23;;
69979;SDS011;57318;56.232;43.944;2023-05-15T01:54:41;2.30;;;1.10;;
69979;SDS011;57318;56.232;43.944;2023-05-15T01:57:08;3.90;;;1.80;;
69979;SDS011;57318;56.232;43.944;2023-05-15T01:59:35;3.08;;;1.60;;
69979;SDS011;57318;56.232;43.944;2023-05-15T02:02:03;3.70;;;1.40;;
69979;SDS011;57318;56.232;43.944;2023-05-15T02:04:29;3.20;;;1.40;;
69979;SDS011;57318;56.232;43.944;2023-05-15T02:06:55;1.88;;;1.60;;
69979;SDS011;57318;56.232;43.944;2023-05-15T02:09:22;2.92;;;1.40;;
69979;SDS011;57318;56.232;43.944;2023-05-15T02:11:49;1.40;;;1.30;;
69979;SDS011;57318;56.232;43.944;2023-05-15T02:16:41;3.05;;;1.42;;
69979;SDS011;57318;56.232;43.944;2023-05-15T02:19:07;7.32;;;1.70;;
69979;SDS011;57318;56.232;43.944;2023-05-15T02:21:33;7.37;;;1.60;;
69979;SDS011;57318;56.232;43.944;2023-05-15T02:23:59;1.63;;;1.38;;
69979;SDS011;57318;56.232;43.944;2023-05-15T02:29:17;4.97;;;1.50;;
69979;SDS011;57318;56.232;43.944;2023-05-15T02:34:41;3.38;;;1.52;;
69979;SDS011;57318;56.232;43.944;2023-05-15T02:37:20;10.48;;;1.42;;
69979;SDS011;57318;56.232;43.944;2023-05-15T02:39:52;6.38;;;1.80;;
69979;SDS011;57318;56.232;43.944;2023-05-15T02:42:19;3.80;;;1.40;;
69979;SDS011;57318;56.232;43.944;2023-05-15T02:44:47;1.42;;;1.10;;
69979;SDS011;57318;56.232;43.944;2023-05-15T02:47:13;3.22;;;1.38;;
69979;SDS011;57318;56.232;43.944;2023-05-15T02:49:40;2.78;;;1.20;;
69979;SDS011;57318;56.232;43.944;2023-05-15T02:52:06;1.40;;;1.30;;
69979;SDS011;57318;56.232;43.944;2023-05-15T02:54:31;1.63;;;1.20;;
69979;SDS011;57318;56.232;43.944;2023-05-15T02:56:57;2.93;;;1.53;;
69979;SDS011;57318;56.232;43.944;2023-05-15T02:59:23;2.50;;;1.50;;
69979;SDS011;57318;56.232;43.944;2023-05-15T03:01:49;3.13;;;1.90;;
69979;SDS011;57318;56.232;43.944;2023-05-15T03:04:15;2.27;;;1.83;;
69979;SDS011;57318;56.232;43.944;2023-05-15T03:06:41;2.22;;;2.03;;
69979;SDS011;57318;56.232;43.944;2023-05-15T03:09:07;3.50;;;2.40;;
69979;SDS011;57318;56.232;43.944;2023-05-15T03:11:32;3.60;;;2.33;;
69979;SDS011;57318;56.232;43.944;2023-05-15T03:13:58;3.37;;;2.17;;
69979;SDS011;57318;56.232;43.944;2023-05-15T03:16:27;3.83;;;2.53;;
69979;SDS011;57318;56.232;43.944;2023-05-15T03:18:53;4.17;;;2.33;;
69979;SDS011;57318;56.232;43.944;2023-05-15T03:21:19;7.27;;;2.27;;
69979;SDS011;57318;56.232;43.944;2023-05-15T03:23:45;4.20;;;2.47;;
69979;SDS011;57318;56.232;43.944;2023-05-15T03:26:10;3.57;;;2.10;;
69979;SDS011;57318;56.232;43.944;2023-05-15T03:28:36;16.73;;;2.73;;
69979;SDS011;57318;56.232;43.944;2023-05-15T03:31:02;4.18;;;2.50;;
69979;SDS011;57318;56.232;43.944;2023-05-15T03:33:33;5.22;;;2.40;;
69979;SDS011;57318;56.232;43.944;2023-05-15T03:35:59;5.78;;;2.33;;
69979;SDS011;57318;56.232;43.944;2023-05-15T03:38:24;3.73;;;2.50;;
69979;SDS011;57318;56.232;43.944;2023-05-15T03:40:50;10.27;;;2.80;;
69979;SDS011;57318;56.232;43.944;2023-05-15T03:43:16;5.17;;;2.83;;
69979;SDS011;57318;56.232;43.944;2023-05-15T03:45:42;4.43;;;3.00;;
69979;SDS011;57318;56.232;43.944;2023-05-15T03:48:08;5.70;;;3.45;;
69979;SDS011;57318;56.232;43.944;2023-05-15T03:50:34;6.93;;;3.57;;
69979;SDS011;57318;56.232;43.944;2023-05-15T03:52:59;7.73;;;3.87;;
69979;SDS011;57318;56.232;43.944;2023-05-15T03:55:25;6.10;;;3.63;;
69979;SDS011;57318;56.232;43.944;2023-05-15T03:57:51;8.93;;;3.85;;
69979;SDS011;57318;56.232;43.944;2023-05-15T04:00:17;8.82;;;4.03;;
69979;SDS011;57318;56.232;43.944;2023-05-15T04:02:43;8.03;;;4.67;;
69979;SDS011;57318;56.232;43.944;2023-05-15T04:05:09;8.05;;;5.25;;
69979;SDS011;57318;56.232;43.944;2023-05-15T04:07:35;11.55;;;5.72;;
69979;SDS011;57318;56.232;43.944;2023-05-15T04:10:02;10.93;;;5.50;;
69979;SDS011;57318;56.232;43.944;2023-05-15T04:12:33;11.30;;;6.13;;
69979;SDS011;57318;56.232;43.944;2023-05-15T04:17:44;11.35;;;6.35;;
69979;SDS011;57318;56.232;43.944;2023-05-15T04:20:11;13.70;;;5.65;;
69979;SDS011;57318;56.232;43.944;2023-05-15T04:22:39;12.25;;;6.68;;
69979;SDS011;57318;56.232;43.944;2023-05-15T04:25:06;11.93;;;5.55;;
69979;SDS011;57318;56.232;43.944;2023-05-15T04:27:33;11.93;;;5.80;;
69979;SDS011;57318;56.232;43.944;2023-05-15T04:30:00;16.00;;;6.20;;
69979;SDS011;57318;56.232;43.944;2023-05-15T04:32:26;15.68;;;5.15;;
69979;SDS011;57318;56.232;43.944;2023-05-15T04:34:52;9.33;;;5.17;;
69979;SDS011;57318;56.232;43.944;2023-05-15T04:37:18;10.15;;;5.65;;
69979;SDS011;57318;56.232;43.944;2023-05-15T04:39:43;14.87;;;5.50;;
69979;SDS011;57318;56.232;43.944;2023-05-15T04:42:09;18.27;;;5.07;;
69979;SDS011;57318;56.232;43.944;2023-05-15T04:44:35;17.00;;;5.55;;
69979;SDS011;57318;56.232;43.944;2023-05-15T04:47:01;30.90;;;6.73;;
69979;SDS011;57318;56.232;43.944;2023-05-15T04:49:27;11.23;;;5.13;;
69979;SDS011;57318;56.232;43.944;2023-05-15T04:51:53;10.13;;;5.20;;
69979;SDS011;57318;56.232;43.944;2023-05-15T04:54:18;7.57;;;5.00;;
69979;SDS011;57318;56.232;43.944;2023-05-15T04:56:45;6.30;;;4.88;;
69979;SDS011;57318;56.232;43.944;2023-05-15T04:59:11;8.17;;;5.00;;
69979;SDS011;57318;56.232;43.944;2023-05-15T05:01:37;7.07;;;4.50;;
69979;SDS011;57318;56.232;43.944;2023-05-15T05:04:03;12.07;;;4.47;;
69979;SDS011;57318;56.232;43.944;2023-05-15T05:06:29;8.30;;;4.20;;
69979;SDS011;57318;56.232;43.944;2023-05-15T05:08:55;12.07;;;3.80;;
69979;SDS011;57318;56.232;43.944;2023-05-15T05:11:21;15.87;;;5.07;;
69979;SDS011;57318;56.232;43.944;2023-05-15T05:13:47;10.83;;;4.47;;
69979;SDS011;57318;56.232;43.944;2023-05-15T05:18:39;11.13;;;4.88;;
69979;SDS011;57318;56.232;43.944;2023-05-15T05:21:04;11.63;;;4.53;;
69979;SDS011;57318;56.232;43.944;2023-05-15T05:23:30;8.52;;;4.30;;
69979;SDS011;57318;56.232;43.944;2023-05-15T05:25:57;6.50;;;2.90;;
69979;SDS011;57318;56.232;43.944;2023-05-15T05:28:24;3.42;;;2.53;;
69979;SDS011;57318;56.232;43.944;2023-05-15T05:30:50;6.03;;;2.43;;
69979;SDS011;57318;56.232;43.944;2023-05-15T05:33:15;5.10;;;2.27;;
69979;SDS011;57318;56.232;43.944;2023-05-15T05:35:41;3.90;;;2.03;;
69979;SDS011;57318;56.232;43.944;2023-05-15T05:38:07;5.53;;;2.40;;
69979;SDS011;57318;56.232;43.944;2023-05-15T05:40:33;5.83;;;2.47;;
69979;SDS011;57318;56.232;43.944;2023-05-15T05:42:59;3.87;;;2.20;;
69979;SDS011;57318;56.232;43.944;2023-05-15T05:45:25;4.60;;;1.60;;
69979;SDS011;57318;56.232;43.944;2023-05-15T05:47:51;1.40;;;1.30;;
69979;SDS011;57318;56.232;43.944;2023-05-15T05:50:17;2.43;;;1.70;;
69979;SDS011;57318;56.232;43.944;2023-05-15T05:52:43;4.53;;;1.83;;
69979;SDS011;57318;56.232;43.944;2023-05-15T05:55:09;4.00;;;1.73;;
69979;SDS011;57318;56.232;43.944;2023-05-15T05:57:34;3.93;;;2.00;;
69979;SDS011;57318;56.232;43.944;2023-05-15T06:00:00;2.90;;;1.60;;
69979;SDS011;57318;56.232;43.944;2023-05-15T06:02:28;2.72;;;1.30;;
69979;SDS011;57318;56.232;43.944;2023-05-15T06:04:54;1.83;;;1.27;;
69979;SDS011;57318;56.232;43.944;2023-05-15T06:07:20;1.20;;;1.10;;
69979;SDS011;57318;56.232;43.944;2023-05-15T06:12:12;2.20;;;1.10;;
69979;SDS011;57318;56.232;43.944;2023-05-15T06:14:38;4.00;;;1.70;;
69979;SDS011;57318;56.232;43.944;2023-05-15T06:17:04;1.77;;;1.00;;
69979;SDS011;57318;56.232;43.944;2023-05-15T06:19:30;2.63;;;1.10;;
69979;SDS011;57318;56.232;43.944;2023-05-15T06:21:56;6.60;;;1.30;;
69979;SDS011;57318;56.232;43.944;2023-05-15T06:24:22;1.73;;;1.23;;
69979;SDS011;57318;56.232;43.944;2023-05-15T06:26:48;1.87;;;1.10;;
69979;SDS011;57318;56.232;43.944;2023-05-15T06:29:13;1.90;;;1.10;;
69979;SDS011;57318;56.232;43.944;2023-05-15T06:31:39;1.20;;;1.10;;
69979;SDS011;57318;56.232;43.944;2023-05-15T06:34:05;1.10;;;1.00;;
69979;SDS011;57318;56.232;43.944;2023-05-15T06:36:31;2.50;;;1.47;;
69979;SDS011;57318;56.232;43.944;2023-05-15T06:38:56;3.60;;;1.70;;
69979;SDS011;57318;56.232;43.944;2023-05-15T06:41:22;2.00;;;0.90;;
69979;SDS011;57318;56.232;43.944;2023-05-15T06:43:48;1.27;;;1.10;;
69979;SDS011;57318;56.232;43.944;2023-05-15T06:46:13;3.75;;;1.33;;
69979;SDS011;57318;56.232;43.944;2023-05-15T06:48:41;1.27;;;0.80;;
69979;SDS011;57318;56.232;43.944;2023-05-15T06:51:06;1.50;;;0.70;;
69979;SDS011;57318;56.232;43.944;2023-05-15T06:53:32;1.30;;;1.20;;
69979;SDS011;57318;56.232;43.944;2023-05-15T06:55:58;1.23;;;1.02;;
69979;SDS011;57318;56.232;43.944;2023-05-15T06:58:24;3.80;;;1.13;;
69979;SDS011;57318;56.232;43.944;2023-05-15T07:00:49;0.70;;;0.70;;
69979;SDS011;57318;56.232;43.944;2023-05-15T07:03:15;3.33;;;1.25;;
69979;SDS011;57318;56.232;43.944;2023-05-15T07:05:41;2.60;;;1.17;;
69979;SDS011;57318;56.232;43.944;2023-05-15T07:08:07;4.15;;;1.05;;
69979;SDS011;57318;56.232;43.944;2023-05-15T07:10:33;1.30;;;1.20;;
69979;SDS011;57318;56.232;43.944;2023-05-15T07:12:59;0.75;;;0.75;;
69979;SDS011;57318;56.232;43.944;2023-05-15T07:15:24;1.85;;;0.90;;
69979;SDS011;57318;56.232;43.944;2023-05-15T07:17:50;2.70;;;1.10;;
69979;SDS011;57318;56.232;43.944;2023-05-15T07:20:19;2.03;;;1.77;;
69979;SDS011;57318;56.232;43.944;2023-05-15T07:22:45;1.25;;;1.00;;
69979;SDS011;57318;56.232;43.944;2023-05-15T07:27:36;1.55;;;1.02;;
69979;SDS011;57318;56.232;43.944;2023-05-15T07:30:02;1.08;;;0.80;;
69979;SDS011;57318;56.232;43.944;2023-05-15T07:32:30;1.52;;;1.10;;
69979;SDS011;57318;56.232;43.944;2023-05-15T07:34:56;5.40;;;1.33;;
69979;SDS011;57318;56.232;43.944;2023-05-15T07:37:22;2.28;;;1.25;;
69979;SDS011;57318;56.232;43.944;2023-05-15T07:39:48;1.35;;;1.10;;
69979;SDS011;57318;56.232;43.944;2023-05-15T07:42:14;6.05;;;1.55;;
69979;SDS011;57318;56.232;43.944;2023-05-15T07:44:40;2.33;;;1.20;;
69979;SDS011;57318;56.232;43.944;2023-05-15T07:47:05;1.45;;;1.20;;
69979;SDS011;57318;56.232;43.944;2023-05-15T07:49:31;1.30;;;0.95;;
69979;SDS011;57318;56.232;43.944;2023-05-15T07:51:57;3.08;;;1.02;;
69979;SDS011;57318;56.232;43.944;2023-05-15T07:54:23;1.20;;;0.90;;
69979;SDS011;57318;56.232;43.944;2023-05-15T07:56:48;0.95;;;0.88;;
69979;SDS011;57318;56.232;43.944;2023-05-15T07:59:15;1.75;;;0.90;;
69979;SDS011;57318;56.232;43.944;2023-05-15T08:01:40;1.05;;;0.90;;
69979;SDS011;57318;56.232;43.944;2023-05-15T08:06:33;2.13;;;1.37;;
69979;SDS011;57318;56.232;43.944;2023-05-15T08:09:01;3.17;;;1.13;;
69979;SDS011;57318;56.232;43.944;2023-05-15T08:11:27;2.60;;;1.00;;
69979;SDS011;57318;56.232;43.944;2023-05-15T08:13:53;4.57;;;1.27;;
69979;SDS011;57318;56.232;43.944;2023-05-15T08:16:18;1.98;;;1.08;;
69979;SDS011;57318;56.232;43.944;2023-05-15T08:18:44;2.63;;;0.95;;
69979;SDS011;57318;56.232;43.944;2023-05-15T08:21:10;2.60;;;1.13;;
69979;SDS011;57318;56.232;43.944;2023-05-15T08:23:36;1.98;;;1.10;;
69979;SDS011;57318;56.232;43.944;2023-05-15T08:26:01;2.83;;;0.98;;
69979;SDS011;57318;56.232;43.944;2023-05-15T08:28:27;1.38;;;1.10;;
69979;SDS011;57318;56.232;43.944;2023-05-15T08:30:53;1.83;;;0.80;;
69979;SDS011;57318;56.232;43.944;2023-05-15T08:33:19;2.25;;;1.02;;
69979;SDS011;57318;56.232;43.944;2023-05-15T08:35:45;1.50;;;0.98;;
69979;SDS011;57318;56.232;43.944;2023-05-15T08:38:10;3.38;;;1.40;;
69979;SDS011;57318;56.232;43.944;2023-05-15T08:40:36;2.33;;;1.37;;
69979;SDS011;57318;56.232;43.944;2023-05-15T08:43:03;2.47;;;0.93;;
69979;SDS011;57318;56.232;43.944;2023-05-15T08:45:34;1.20;;;1.10;;
69979;SDS011;57318;56.232;43.944;2023-05-15T08:48:00;3.53;;;1.10;;
69979;SDS011;57318;56.232;43.944;2023-05-15T08:50:41;1.45;;;1.00;;
69979;SDS011;57318;56.232;43.944;2023-05-15T08:53:09;4.65;;;1.20;;
69979;SDS011;57318;56.232;43.944;2023-05-15T08:55:36;1.80;;;1.17;;
69979;SDS011;57318;56.232;43.944;2023-05-15T08:58:02;2.08;;;1.20;;
69979;SDS011;57318;56.232;43.944;2023-05-15T09:00:29;2.80;;;1.20;;
69979;SDS011;57318;56.232;43.944;2023-05-15T09:02:57;1.45;;;1.20;;
69979;SDS011;57318;56.232;43.944;2023-05-15T09:05:24;3.95;;;1.10;;
69979;SDS011;57318;56.232;43.944;2023-05-15T09:07:51;4.05;;;1.90;;
69979;SDS011;57318;56.232;43.944;2023-05-15T09:10:18;1.55;;;1.20;;
69979;SDS011;57318;56.232;43.944;2023-05-15T09:12:45;1.83;;;1.17;;
69979;SDS011;57318;56.232;43.944;2023-05-15T09:15:17;0.73;;;0.73;;
69979;SDS011;57318;56.232;43.944;2023-05-15T09:17:47;1.30;;;0.80;;
69979;SDS011;57318;56.232;43.944;2023-05-15T09:20:28;1.67;;;1.00;;
69979;SDS011;57318;56.232;43.944;2023-05-15T09:22:55;1.85;;;0.77;;
69979;SDS011;57318;56.232;43.944;2023-05-15T09:25:32;3.38;;;1.27;;
69979;SDS011;57318;56.232;43.944;2023-05-15T09:27:59;1.17;;;1.00;;
69979;SDS011;57318;56.232;43.944;2023-05-15T09:30:25;1.00;;;0.90;;
69979;SDS011;57318;56.232;43.944;2023-05-15T09:32:52;3.33;;;0.90;;
69979;SDS011;57318;56.232;43.944;2023-05-15T09:35:36;1.77;;;1.00;;
69979;SDS011;57318;56.232;43.944;2023-05-15T09:38:05;1.60;;;1.00;;
69979;SDS011;57318;56.232;43.944;2023-05-15T09:40:33;1.73;;;1.30;;
69979;SDS011;57318;56.232;43.944;2023-05-15T09:42:59;2.05;;;1.27;;
69979;SDS011;57318;56.232;43.944;2023-05-15T09:45:24;2.70;;;1.20;;
69979;SDS011;57318;56.232;43.944;2023-05-15T09:47:53;1.00;;;1.00;;
69979;SDS011;57318;56.232;43.944;2023-05-15T09:50:32;1.50;;;1.30;;
69979;SDS011;57318;56.232;43.944;2023-05-15T09:52:59;2.08;;;1.10;;
69979;SDS011;57318;56.232;43.944;2023-05-15T09:55:25;1.00;;;0.90;;
69979;SDS011;57318;56.232;43.944;2023-05-15T09:58:13;4.53;;;1.40;;
69979;SDS011;57318;56.232;43.944;2023-05-15T10:00:39;2.58;;;1.40;;
69979;SDS011;57318;56.232;43.944;2023-05-15T10:03:07;4.80;;;1.23;;
69979;SDS011;57318;56.232;43.944;2023-05-15T10:05:34;1.75;;;0.90;;
69979;SDS011;57318;56.232;43.944;2023-05-15T10:08:00;1.35;;;0.90;;
69979;SDS011;57318;56.232;43.944;2023-05-15T10:10:27;1.50;;;1.05;;
69979;SDS011;57318;56.232;43.944;2023-05-15T10:12:54;0.90;;;0.90;;
69979;SDS011;57318;56.232;43.944;2023-05-15T10:15:24;1.98;;;0.80;;
69979;SDS011;57318;56.232;43.944;2023-05-15T10:20:20;2.30;;;1.20;;
69979;SDS011;57318;56.232;43.944;2023-05-15T10:22:49;1.45;;;0.95;;
69979;SDS011;57318;56.232;43.944;2023-05-15T10:28:10;3.15;;;1.55;;
69979;SDS011;57318;56.232;43.944;2023-05-15T10:30:36;1.88;;;1.40;;
69979;SDS011;57318;56.232;43.944;2023-05-15T10:33:03;1.30;;;1.08;;
69979;SDS011;57318;56.232;43.944;2023-05-15T10:35:30;2.45;;;1.20;;
69979;SDS011;57318;56.232;43.944;2023-05-15T10:37:57;4.32;;;1.50;;
69979;SDS011;57318;56.232;43.944;2023-05-15T10:40:24;2.45;;;1.40;;
69979;SDS011;57318;56.232;43.944;2023-05-15T10:42:52;1.52;;;1.30;;
69979;SDS011;57318;56.232;43.944;2023-05-15T10:45:19;1.83;;;1.00;;
69979;SDS011;57318;56.232;43.944;2023-05-15T10:47:46;2.53;;;0.90;;
69979;SDS011;57318;56.232;43.944;2023-05-15T10:50:12;2.05;;;1.02;;
69979;SDS011;57318;56.232;43.944;2023-05-15T10:52:38;2.30;;;0.98;;
69979;SDS011;57318;56.232;43.944;2023-05-15T10:55:05;2.30;;;1.02;;
69979;SDS011;57318;56.232;43.944;2023-05-15T10:57:32;2.20;;;0.98;;
69979;SDS011;57318;56.232;43.944;2023-05-15T10:59:58;2.67;;;1.33;;
69979;SDS011;57318;56.232;43.944;2023-05-15T11:04:58;1.50;;;1.20;;
69979;SDS011;57318;56.232;43.944;2023-05-15T11:07:26;1.35;;;1.10;;
69979;SDS011;57318;56.232;43.944;2023-05-15T11:09:53;1.42;;;0.98;;
69979;SDS011;57318;56.232;43.944;2023-05-15T11:12:19;3.38;;;1.02;;
69979;SDS011;57318;56.232;43.944;2023-05-15T11:17:21;5.68;;;2.28;;
69979;SDS011;57318;56.232;43.944;2023-05-15T11:24:58;2.70;;;1.52;;
69979;SDS011;57318;56.232;43.944;2023-05-15T11:27:40;7.07;;;1.73;;
69979;SDS011;57318;56.232;43.944;2023-05-15T11:32:49;2.55;;;1.58;;
69979;SDS011;57318;56.232;43.944;2023-05-15T11:35:26;0.95;;;0.95;;
69979;SDS011;57318;56.232;43.944;2023-05-15T11:37:58;5.32;;;1.77;;
69979;SDS011;57318;56.232;43.944;2023-05-15T11:40:28;2.97;;;1.20;;
69979;SDS011;57318;56.232;43.944;2023-05-15T11:43:06;1.10;;;1.00;;
69979;SDS011;57318;56.232;43.944;2023-05-15T11:48:20;1.65;;;1.00;;
69979;SDS011;57318;56.232;43.944;2023-05-15T11:50:47;2.78;;;1.38;;
69979;SDS011;57318;56.232;43.944;2023-05-15T11:53:14;1.48;;;1.30;;
69979;SDS011;57318;56.232;43.944;2023-05-15T11:55:41;2.25;;;1.30;;
69979;SDS011;57318;56.232;43.944;2023-05-15T11:58:12;1.90;;;1.00;;
69979;SDS011;57318;56.232;43.944;2023-05-15T12:00:40;2.22;;;1.73;;
69979;SDS011;57318;56.232;43.944;2023-05-15T12:03:10;1.98;;;1.75;;
69979;SDS011;57318;56.232;43.944;2023-05-15T12:05:40;5.13;;;1.70;;
69979;SDS011;57318;56.232;43.944;2023-05-15T12:08:10;2.38;;;1.20;;
69979;SDS011;57318;56.232;43.944;2023-05-15T12:10:44;1.42;;;1.33;;
69979;SDS011;57318;56.232;43.944;2023-05-15T12:13:10;3.70;;;1.40;;
69979;SDS011;57318;56.232;43.944;2023-05-15T12:15:37;3.00;;;1.27;;
69979;SDS011;57318;56.232;43.944;2023-05-15T12:18:04;3.10;;;1.00;;
69979;SDS011;57318;56.232;43.944;2023-05-15T12:20:34;2.67;;;1.25;;
69979;SDS011;57318;56.232;43.944;2023-05-15T12:23:02;2.10;;;1.15;;
69979;SDS011;57318;56.232;43.944;2023-05-15T12:25:30;2.42;;;0.90;;
69979;SDS011;57318;56.232;43.944;2023-05-15T12:27:58;3.40;;;1.15;;
69979;SDS011;57318;56.232;43.944;2023-05-15T12:30:29;2.65;;;1.30;;
69979;SDS011;57318;56.232;43.944;2023-05-15T12:32:59;2.70;;;1.40;;
69979;SDS011;57318;56.232;43.944;2023-05-15T12:35:40;2.50;;;1.27;;
69979;SDS011;57318;56.232;43.944;2023-05-15T12:38:07;2.60;;;1.25;;
69979;SDS011;57318;56.232;43.944;2023-05-15T12:40:38;2.08;;;1.75;;
69979;SDS011;57318;56.232;43.944;2023-05-15T12:43:04;3.85;;;1.20;;
69979;SDS011;57318;56.232;43.944;2023-05-15T12:45:31;9.73;;;1.50;;
69979;SDS011;57318;56.232;43.944;2023-05-15T12:47:59;2.40;;;1.40;;
69979;SDS011;57318;56.232;43.944;2023-05-15T12:50:48;1.33;;;1.20;;
69979;SDS011;57318;56.232;43.944;2023-05-15T12:53:14;1.55;;;1.20;;
69979;SDS011;57318;56.232;43.944;2023-05-15T12:55:42;4.75;;;1.25;;
69979;SDS011;57318;56.232;43.944;2023-05-15T12:58:11;3.28;;;1.27;;
69979;SDS011;57318;56.232;43.944;2023-05-15T13:00:39;2.25;;;1.10;;
69979;SDS011;57318;56.232;43.944;2023-05-15T13:03:09;2.38;;;1.40;;
69979;SDS011;57318;56.232;43.944;2023-05-15T13:05:36;1.85;;;0.90;;
69979;SDS011;57318;56.232;43.944;2023-05-15T13:08:04;2.05;;;1.30;;
69979;SDS011;57318;56.232;43.944;2023-05-15T13:10:35;3.33;;;1.23;;
69979;SDS011;57318;56.232;43.944;2023-05-15T13:13:02;2.15;;;1.20;;
69979;SDS011;57318;56.232;43.944;2023-05-15T13:15:29;5.13;;;1.40;;
69979;SDS011;57318;56.232;43.944;2023-05-15T13:20:26;1.25;;;1.05;;
69979;SDS011;57318;56.232;43.944;2023-05-15T13:22:53;3.72;;;1.15;;
69979;SDS011;57318;56.232;43.944;2023-05-15T13:25:19;6.35;;;1.30;;
69979;SDS011;57318;56.232;43.944;2023-05-15T13:27:48;1.58;;;1.20;;
69979;SDS011;57318;56.232;43.944;2023-05-15T13:30:15;3.33;;;1.10;;
69979;SDS011;57318;56.232;43.944;2023-05-15T13:32:42;2.15;;;1.33;;
69979;SDS011;57318;56.232;43.944;2023-05-15T13:35:08;0.80;;;0.80;;
69979;SDS011;57318;56.232;43.944;2023-05-15T13:37:35;7.07;;;0.90;;
69979;SDS011;57318;56.232;43.944;2023-05-15T13:40:06;5.47;;;1.50;;
69979;SDS011;57318;56.232;43.944;2023-05-15T13:42:47;4.78;;;1.13;;
69979;SDS011;57318;56.232;43.944;2023-05-15T13:45:14;3.17;;;1.10;;
69979;SDS011;57318;56.232;43.944;2023-05-15T13:47:41;3.88;;;1.15;;
69979;SDS011;57318;56.232;43.944;2023-05-15T13:50:16;3.53;;;1.30;;
69979;SDS011;57318;56.232;43.944;2023-05-15T13:52:42;4.10;;;1.90;;
69979;SDS011;57318;56.232;43.944;2023-05-15T13:55:09;2.10;;;1.20;;
69979;SDS011;57318;56.232;43.944;2023-05-15T13:57:38;2.15;;;1.02;;
69979;SDS011;57318;56.232;43.944;2023-05-15T14:00:06;1.33;;;1.10;;
69979;SDS011;57318;56.232;43.944;2023-05-15T14:02:38;2.00;;;1.10;;
69979;SDS011;57318;56.232;43.944;2023-05-15T14:05:04;5.90;;;1.90;;
69979;SDS011;57318;56.232;43.944;2023-05-15T14:09:56;4.35;;;1.27;;
69979;SDS011;57318;56.232;43.944;2023-05-15T14:12:22;3.92;;;1.63;;
69979;SDS011;57318;56.232;43.944;2023-05-15T14:14:48;5.30;;;1.80;;
69979;SDS011;57318;56.232;43.944;2023-05-15T14:17:14;17.33;;;2.22;;
69979;SDS011;57318;56.232;43.944;2023-05-15T14:19:41;5.75;;;1.45;;
69979;SDS011;57318;56.232;43.944;2023-05-15T14:22:06;4.25;;;1.80;;
69979;SDS011;57318;56.232;43.944;2023-05-15T14:24:32;5.97;;;1.40;;
69979;SDS011;57318;56.232;43.944;2023-05-15T14:26:58;5.68;;;1.58;;
69979;SDS011;57318;56.232;43.944;2023-05-15T14:29:24;4.70;;;1.85;;
69979;SDS011;57318;56.232;43.944;2023-05-15T14:31:50;6.70;;;1.42;;
69979;SDS011;57318;56.232;43.944;2023-05-15T14:34:16;2.00;;;1.52;;
69979;SDS011;57318;56.232;43.944;2023-05-15T14:36:43;1.63;;;1.52;;
69979;SDS011;57318;56.232;43.944;2023-05-15T14:39:10;2.92;;;1.33;;
69979;SDS011;57318;56.232;43.944;2023-05-15T14:41:38;4.43;;;1.20;;
69979;SDS011;57318;56.232;43.944;2023-05-15T14:44:04;1.90;;;0.90;;
69979;SDS011;57318;56.232;43.944;2023-05-15T14:46:30;4.03;;;0.90;;
69979;SDS011;57318;56.232;43.944;2023-05-15T14:48:55;3.55;;;1.00;;
69979;SDS011;57318;56.232;43.944;2023-05-15T14:51:21;1.75;;;1.10;;
69979;SDS011;57318;56.232;43.944;2023-05-15T14:53:47;4.55;;;1.48;;
69979;SDS011;57318;56.232;43.944;2023-05-15T14:56:12;2.80;;;1.20;;
69979;SDS011;57318;56.232;43.944;2023-05-15T14:58:38;5.43;;;1.35;;
69979;SDS011;57318;56.232;43.944;2023-05-15T15:01:04;4.43;;;1.50;;
69979;SDS011;57318;56.232;43.944;2023-05-15T15:03:30;3.35;;;1.10;;
69979;SDS011;57318;56.232;43.944;2023-05-15T15:05:56;0.98;;;0.95;;
69979;SDS011;57318;56.232;43.944;2023-05-15T15:08:21;5.25;;;1.48;;
69979;SDS011;57318;56.232;43.944;2023-05-15T15:10:47;3.13;;;1.33;;
69979;SDS011;57318;56.232;43.944;2023-05-15T15:13:13;0.98;;;0.95;;
69979;SDS011;57318;56.232;43.944;2023-05-15T15:15:39;3.70;;;1.50;;
69979;SDS011;57318;56.232;43.944;2023-05-15T15:18:05;5.72;;;2.35;;
69979;SDS011;57318;56.232;43.944;2023-05-15T15:20:32;3.55;;;1.20;;
69979;SDS011;57318;56.232;43.944;2023-05-15T15:22:58;3.05;;;1.27;;
69979;SDS011;57318;56.232;43.944;2023-05-15T15:25:24;11.30;;;1.70;;
69979;SDS011;57318;56.232;43.944;2023-05-15T15:27:50;3.08;;;1.25;;
69979;SDS011;57318;56.232;43.944;2023-05-15T15:30:17;16.10;;;2.30;;
69979;SDS011;57318;56.232;43.944;2023-05-15T15:32:43;3.08;;;1.00;;